sensor_id;sensor_type;location;lat;lon;timestamp;temperature;humidity
67868;SHT31;54672;46.096;14.470;2023-04-25T00:01:20;8.32;98.99
67868;SHT31;54672;46.096;14.470;2023-04-25T00:03:47;8.28;99.05
67868;SHT31;54672;46.096;14.470;2023-04-25T00:06:12;8.29;99.09
67868;SHT31;54672;46.096;14.470;2023-04-25T00:08:38;8.25;99.07
67868;SHT31;54672;46.096;14.470;2023-04-25T00:11:04;8.22;99.15
67868;SHT31;54672;46.096;14.470;2023-04-25T00:13:29;8.21;99.13
67868;SHT31;54672;46.096;14.470;2023-04-25T00:15:55;8.22;99.20
67868;SHT31;54672;46.096;14.470;2023-04-25T00:18:22;8.26;99.20
67868;SHT31;54672;46.096;14.470;2023-04-25T00:20:47;8.28;99.09
67868;SHT31;54672;46.096;14.470;2023-04-25T00:23:14;8.34;99.19
67868;SHT31;54672;46.096;14.470;2023-04-25T00:25:47;8.32;99.11
67868;SHT31;54672;46.096;14.470;2023-04-25T00:28:13;8.36;99.08
67868;SHT31;54672;46.096;14.470;2023-04-25T00:30:39;8.36;99.06
67868;SHT31;54672;46.096;14.470;2023-04-25T00:33:05;8.35;99.09
67868;SHT31;54672;46.096;14.470;2023-04-25T00:35:31;8.39;99.01
67868;SHT31;54672;46.096;14.470;2023-04-25T00:37:56;8.41;98.95
67868;SHT31;54672;46.096;14.470;2023-04-25T00:40:22;8.48;98.89
67868;SHT31;54672;46.096;14.470;2023-04-25T00:42:47;8.49;98.66
67868;SHT31;54672;46.096;14.470;2023-04-25T00:45:14;8.50;98.70
67868;SHT31;54672;46.096;14.470;2023-04-25T00:47:43;8.48;98.46
67868;SHT31;54672;46.096;14.470;2023-04-25T00:50:09;8.46;98.71
67868;SHT31;54672;46.096;14.470;2023-04-25T00:52:35;8.48;98.71
67868;SHT31;54672;46.096;14.470;2023-04-25T00:55:01;8.46;98.55
67868;SHT31;54672;46.096;14.470;2023-04-25T00:57:26;8.53;98.62
67868;SHT31;54672;46.096;14.470;2023-04-25T00:59:52;8.50;98.60
67868;SHT31;54672;46.096;14.470;2023-04-25T01:02:18;8.52;98.29
67868;SHT31;54672;46.096;14.470;2023-04-25T01:04:46;8.56;98.13
67868;SHT31;54672;46.096;14.470;2023-04-25T01:07:12;8.59;98.24
67868;SHT31;54672;46.096;14.470;2023-04-25T01:09:38;8.57;98.10
67868;SHT31;54672;46.096;14.470;2023-04-25T01:12:04;8.59;97.97
67868;SHT31;54672;46.096;14.470;2023-04-25T01:14:29;8.60;97.98
67868;SHT31;54672;46.096;14.470;2023-04-25T01:16:55;8.59;97.93
67868;SHT31;54672;46.096;14.470;2023-04-25T01:19:20;8.59;97.90
67868;SHT31;54672;46.096;14.470;2023-04-25T01:21:46;8.56;98.08
67868;SHT31;54672;46.096;14.470;2023-04-25T01:24:12;8.60;98.06
67868;SHT31;54672;46.096;14.470;2023-04-25T01:26:38;8.60;98.14
67868;SHT31;54672;46.096;14.470;2023-04-25T01:29:07;8.60;98.17
67868;SHT31;54672;46.096;14.470;2023-04-25T01:31:34;8.63;98.20
67868;SHT31;54672;46.096;14.470;2023-04-25T01:34:00;8.65;98.08
67868;SHT31;54672;46.096;14.470;2023-04-25T01:36:25;8.67;97.98
67868;SHT31;54672;46.096;14.470;2023-04-25T01:38:52;8.69;97.91
67868;SHT31;54672;46.096;14.470;2023-04-25T01:41:17;8.67;97.96
67868;SHT31;54672;46.096;14.470;2023-04-25T01:43:43;8.69;97.86
67868;SHT31;54672;46.096;14.470;2023-04-25T01:46:11;8.67;97.71
67868;SHT31;54672;46.096;14.470;2023-04-25T01:48:36;8.66;97.81
67868;SHT31;54672;46.096;14.470;2023-04-25T01:51:02;8.67;97.88
67868;SHT31;54672;46.096;14.470;2023-04-25T01:53:28;8.63;97.94
67868;SHT31;54672;46.096;14.470;2023-04-25T01:55:53;8.60;98.01
67868;SHT31;54672;46.096;14.470;2023-04-25T01:58:19;8.57;97.92
67868;SHT31;54672;46.096;14.470;2023-04-25T02:00:44;8.53;97.91
67868;SHT31;54672;46.096;14.470;2023-04-25T02:03:10;8.49;97.97
67868;SHT31;54672;46.096;14.470;2023-04-25T02:05:38;8.44;98.01
67868;SHT31;54672;46.096;14.470;2023-04-25T02:08:08;8.32;98.17
67868;SHT31;54672;46.096;14.470;2023-04-25T02:10:34;8.15;98.35
67868;SHT31;54672;46.096;14.470;2023-04-25T02:13:00;8.07;98.81
67868;SHT31;54672;46.096;14.470;2023-04-25T02:15:26;8.07;98.77
67868;SHT31;54672;46.096;14.470;2023-04-25T02:17:51;8.05;98.68
67868;SHT31;54672;46.096;14.470;2023-04-25T02:20:19;8.08;98.68
67868;SHT31;54672;46.096;14.470;2023-04-25T02:22:45;8.14;98.73
67868;SHT31;54672;46.096;14.470;2023-04-25T02:25:11;8.21;98.80
67868;SHT31;54672;46.096;14.470;2023-04-25T02:27:37;8.08;99.06
67868;SHT31;54672;46.096;14.470;2023-04-25T02:30:03;8.08;99.27
67868;SHT31;54672;46.096;14.470;2023-04-25T02:32:30;8.02;99.15
67868;SHT31;54672;46.096;14.470;2023-04-25T02:34:55;7.99;99.09
67868;SHT31;54672;46.096;14.470;2023-04-25T02:37:23;8.02;99.07
67868;SHT31;54672;46.096;14.470;2023-04-25T02:39:49;8.07;99.17
67868;SHT31;54672;46.096;14.470;2023-04-25T02:42:14;8.16;98.90
67868;SHT31;54672;46.096;14.470;2023-04-25T02:44:40;8.18;98.74
67868;SHT31;54672;46.096;14.470;2023-04-25T02:47:05;8.28;98.83
67868;SHT31;54672;46.096;14.470;2023-04-25T02:49:31;8.29;98.77
67868;SHT31;54672;46.096;14.470;2023-04-25T02:51:56;8.36;98.57
67868;SHT31;54672;46.096;14.470;2023-04-25T02:54:22;8.32;98.02
67868;SHT31;54672;46.096;14.470;2023-04-25T02:56:47;8.31;97.97
67868;SHT31;54672;46.096;14.470;2023-04-25T02:59:12;8.31;97.68
67868;SHT31;54672;46.096;14.470;2023-04-25T03:01:38;8.25;97.52
67868;SHT31;54672;46.096;14.470;2023-04-25T03:04:03;8.20;97.78
67868;SHT31;54672;46.096;14.470;2023-04-25T03:06:29;8.16;97.86
67868;SHT31;54672;46.096;14.470;2023-04-25T03:08:55;8.14;97.88
67868;SHT31;54672;46.096;14.470;2023-04-25T03:11:21;8.18;97.98
67868;SHT31;54672;46.096;14.470;2023-04-25T03:13:46;8.24;97.97
67868;SHT31;54672;46.096;14.470;2023-04-25T03:16:12;8.29;97.86
67868;SHT31;54672;46.096;14.470;2023-04-25T03:18:37;8.26;97.38
67868;SHT31;54672;46.096;14.470;2023-04-25T03:21:03;8.31;97.23
67868;SHT31;54672;46.096;14.470;2023-04-25T03:23:28;8.25;97.10
67868;SHT31;54672;46.096;14.470;2023-04-25T03:25:54;8.26;97.47
67868;SHT31;54672;46.096;14.470;2023-04-25T03:28:19;8.31;97.39
67868;SHT31;54672;46.096;14.470;2023-04-25T03:30:45;8.36;97.31
67868;SHT31;54672;46.096;14.470;2023-04-25T03:33:10;8.31;97.08
67868;SHT31;54672;46.096;14.470;2023-04-25T03:35:36;8.31;97.05
67868;SHT31;54672;46.096;14.470;2023-04-25T03:38:01;8.32;96.97
67868;SHT31;54672;46.096;14.470;2023-04-25T03:40:27;8.34;96.84
67868;SHT31;54672;46.096;14.470;2023-04-25T03:42:52;8.26;97.05
67868;SHT31;54672;46.096;14.470;2023-04-25T03:45:18;8.20;97.33
67868;SHT31;54672;46.096;14.470;2023-04-25T03:47:43;8.24;97.45
67868;SHT31;54672;46.096;14.470;2023-04-25T03:50:09;8.25;97.50
67868;SHT31;54672;46.096;14.470;2023-04-25T03:52:35;8.29;97.57
67868;SHT31;54672;46.096;14.470;2023-04-25T03:55:00;8.12;97.24
67868;SHT31;54672;46.096;14.470;2023-04-25T03:57:26;8.04;97.39
67868;SHT31;54672;46.096;14.470;2023-04-25T03:59:51;8.04;97.63
67868;SHT31;54672;46.096;14.470;2023-04-25T04:02:17;7.94;97.76
67868;SHT31;54672;46.096;14.470;2023-04-25T04:04:43;8.01;97.71
67868;SHT31;54672;46.096;14.470;2023-04-25T04:07:09;8.09;97.67
67868;SHT31;54672;46.096;14.470;2023-04-25T04:09:35;8.08;97.36
67868;SHT31;54672;46.096;14.470;2023-04-25T04:12:00;8.07;97.78
67868;SHT31;54672;46.096;14.470;2023-04-25T04:14:28;8.12;97.53
67868;SHT31;54672;46.096;14.470;2023-04-25T04:16:53;8.14;97.27
67868;SHT31;54672;46.096;14.470;2023-04-25T04:19:18;8.18;97.27
67868;SHT31;54672;46.096;14.470;2023-04-25T04:21:44;7.99;97.19
67868;SHT31;54672;46.096;14.470;2023-04-25T04:24:09;7.97;97.47
67868;SHT31;54672;46.096;14.470;2023-04-25T04:26:35;8.04;97.37
67868;SHT31;54672;46.096;14.470;2023-04-25T04:29:02;8.11;97.27
67868;SHT31;54672;46.096;14.470;2023-04-25T04:31:29;8.20;97.04
67868;SHT31;54672;46.096;14.470;2023-04-25T04:33:55;8.28;96.92
67868;SHT31;54672;46.096;14.470;2023-04-25T04:36:20;8.26;96.74
67868;SHT31;54672;46.096;14.470;2023-04-25T04:38:47;8.24;96.94
67868;SHT31;54672;46.096;14.470;2023-04-25T04:41:12;8.29;97.17
67868;SHT31;54672;46.096;14.470;2023-04-25T04:43:38;8.26;96.49
67868;SHT31;54672;46.096;14.470;2023-04-25T04:46:05;8.28;96.21
67868;SHT31;54672;46.096;14.470;2023-04-25T04:48:33;8.31;95.95
67868;SHT31;54672;46.096;14.470;2023-04-25T04:51:00;8.14;96.07
67868;SHT31;54672;46.096;14.470;2023-04-25T04:53:25;8.24;96.21
67868;SHT31;54672;46.096;14.470;2023-04-25T04:55:51;8.39;96.10
67868;SHT31;54672;46.096;14.470;2023-04-25T04:58:16;8.48;95.47
67868;SHT31;54672;46.096;14.470;2023-04-25T05:00:42;8.35;95.53
67868;SHT31;54672;46.096;14.470;2023-04-25T05:03:07;8.48;95.71
67868;SHT31;54672;46.096;14.470;2023-04-25T05:05:33;8.49;95.38
67868;SHT31;54672;46.096;14.470;2023-04-25T05:07:58;8.41;95.52
67868;SHT31;54672;46.096;14.470;2023-04-25T05:10:24;8.56;95.30
67868;SHT31;54672;46.096;14.470;2023-04-25T05:12:49;8.52;95.08
67868;SHT31;54672;46.096;14.470;2023-04-25T05:15:15;8.66;95.06
67868;SHT31;54672;46.096;14.470;2023-04-25T05:17:40;8.70;94.51
67868;SHT31;54672;46.096;14.470;2023-04-25T05:20:06;8.86;94.42
67868;SHT31;54672;46.096;14.470;2023-04-25T05:22:34;8.80;93.99
67868;SHT31;54672;46.096;14.470;2023-04-25T05:24:59;8.63;94.54
67868;SHT31;54672;46.096;14.470;2023-04-25T05:27:25;8.66;94.70
67868;SHT31;54672;46.096;14.470;2023-04-25T05:29:50;8.69;94.59
67868;SHT31;54672;46.096;14.470;2023-04-25T05:32:16;8.65;94.84
67868;SHT31;54672;46.096;14.470;2023-04-25T05:34:42;8.88;94.51
67868;SHT31;54672;46.096;14.470;2023-04-25T05:37:08;9.06;93.95
67868;SHT31;54672;46.096;14.470;2023-04-25T05:39:33;8.96;94.14
67868;SHT31;54672;46.096;14.470;2023-04-25T05:41:59;9.06;93.58
67868;SHT31;54672;46.096;14.470;2023-04-25T05:44:24;9.21;93.92
67868;SHT31;54672;46.096;14.470;2023-04-25T05:46:50;9.20;93.71
67868;SHT31;54672;46.096;14.470;2023-04-25T05:49:15;9.23;93.17
67868;SHT31;54672;46.096;14.470;2023-04-25T05:51:41;9.11;93.02
67868;SHT31;54672;46.096;14.470;2023-04-25T05:54:06;8.77;94.23
67868;SHT31;54672;46.096;14.470;2023-04-25T05:56:31;8.84;94.70
67868;SHT31;54672;46.096;14.470;2023-04-25T05:58:57;8.90;94.53
67868;SHT31;54672;46.096;14.470;2023-04-25T06:01:23;9.17;93.92
67868;SHT31;54672;46.096;14.470;2023-04-25T06:03:48;9.27;93.68
67868;SHT31;54672;46.096;14.470;2023-04-25T06:06:14;9.13;93.64
67868;SHT31;54672;46.096;14.470;2023-04-25T06:08:40;9.24;93.46
67868;SHT31;54672;46.096;14.470;2023-04-25T06:11:06;9.04;93.40
67868;SHT31;54672;46.096;14.470;2023-04-25T06:13:32;9.15;93.42
67868;SHT31;54672;46.096;14.470;2023-04-25T06:15:57;9.21;93.48
67868;SHT31;54672;46.096;14.470;2023-04-25T06:18:22;9.46;93.51
67868;SHT31;54672;46.096;14.470;2023-04-25T06:20:48;9.51;93.28
67868;SHT31;54672;46.096;14.470;2023-04-25T06:23:13;9.65;92.94
67868;SHT31;54672;46.096;14.470;2023-04-25T06:25:39;9.79;92.03
67868;SHT31;54672;46.096;14.470;2023-04-25T06:28:04;9.62;92.11
67868;SHT31;54672;46.096;14.470;2023-04-25T06:30:30;9.72;92.37
67868;SHT31;54672;46.096;14.470;2023-04-25T06:32:55;9.75;92.36
67868;SHT31;54672;46.096;14.470;2023-04-25T06:35:20;10.09;91.42
67868;SHT31;54672;46.096;14.470;2023-04-25T06:37:46;10.54;90.73
67868;SHT31;54672;46.096;14.470;2023-04-25T06:40:11;11.23;88.15
67868;SHT31;54672;46.096;14.470;2023-04-25T06:42:37;10.96;88.78
67868;SHT31;54672;46.096;14.470;2023-04-25T06:45:03;11.60;86.42
67868;SHT31;54672;46.096;14.470;2023-04-25T06:47:28;11.15;86.58
67868;SHT31;54672;46.096;14.470;2023-04-25T06:49:55;11.26;87.57
67868;SHT31;54672;46.096;14.470;2023-04-25T06:52:20;12.36;84.55
67868;SHT31;54672;46.096;14.470;2023-04-25T06:54:46;12.62;83.31
67868;SHT31;54672;46.096;14.470;2023-04-25T06:57:11;12.77;82.64
67868;SHT31;54672;46.096;14.470;2023-04-25T06:59:37;12.84;82.12
67868;SHT31;54672;46.096;14.470;2023-04-25T07:02:02;12.42;84.40
67868;SHT31;54672;46.096;14.470;2023-04-25T07:04:29;11.09;85.43
67868;SHT31;54672;46.096;14.470;2023-04-25T07:06:54;10.26;87.85
67868;SHT31;54672;46.096;14.470;2023-04-25T07:09:20;10.68;88.78
67868;SHT31;54672;46.096;14.470;2023-04-25T07:11:45;10.89;88.21
67868;SHT31;54672;46.096;14.470;2023-04-25T07:14:11;10.40;88.35
67868;SHT31;54672;46.096;14.470;2023-04-25T07:16:36;10.58;88.61
67868;SHT31;54672;46.096;14.470;2023-04-25T07:19:02;10.71;88.02
67868;SHT31;54672;46.096;14.470;2023-04-25T07:21:27;10.84;87.46
67868;SHT31;54672;46.096;14.470;2023-04-25T07:23:53;10.92;86.10
67868;SHT31;54672;46.096;14.470;2023-04-25T07:26:18;10.65;86.13
67868;SHT31;54672;46.096;14.470;2023-04-25T07:28:44;11.42;83.95
67868;SHT31;54672;46.096;14.470;2023-04-25T07:31:09;11.35;82.32
67868;SHT31;54672;46.096;14.470;2023-04-25T07:33:35;11.53;82.41
67868;SHT31;54672;46.096;14.470;2023-04-25T07:36:00;12.01;81.35
67868;SHT31;54672;46.096;14.470;2023-04-25T07:38:26;11.94;81.02
67868;SHT31;54672;46.096;14.470;2023-04-25T07:40:51;11.91;81.63
67868;SHT31;54672;46.096;14.470;2023-04-25T07:43:17;11.29;82.41
67868;SHT31;54672;46.096;14.470;2023-04-25T07:45:43;11.80;81.32
67868;SHT31;54672;46.096;14.470;2023-04-25T07:48:09;12.14;80.32
67868;SHT31;54672;46.096;14.470;2023-04-25T07:50:35;12.63;79.59
67868;SHT31;54672;46.096;14.470;2023-04-25T07:53:00;12.05;79.13
67868;SHT31;54672;46.096;14.470;2023-04-25T07:55:26;11.42;81.58
67868;SHT31;54672;46.096;14.470;2023-04-25T07:57:51;11.64;80.25
67868;SHT31;54672;46.096;14.470;2023-04-25T08:00:17;12.90;78.03
67868;SHT31;54672;46.096;14.470;2023-04-25T08:02:43;13.47;76.37
67868;SHT31;54672;46.096;14.470;2023-04-25T08:05:08;13.85;75.03
67868;SHT31;54672;46.096;14.470;2023-04-25T08:07:37;14.38;74.54
67868;SHT31;54672;46.096;14.470;2023-04-25T08:10:05;12.60;76.23
67868;SHT31;54672;46.096;14.470;2023-04-25T08:12:30;13.04;75.97
67868;SHT31;54672;46.096;14.470;2023-04-25T08:14:56;15.43;70.39
67868;SHT31;54672;46.096;14.470;2023-04-25T08:17:21;15.93;67.22
67868;SHT31;54672;46.096;14.470;2023-04-25T08:19:47;17.20;63.35
67868;SHT31;54672;46.096;14.470;2023-04-25T08:22:12;17.78;61.59
67868;SHT31;54672;46.096;14.470;2023-04-25T08:24:38;16.85;60.75
67868;SHT31;54672;46.096;14.470;2023-04-25T08:27:03;16.14;65.42
67868;SHT31;54672;46.096;14.470;2023-04-25T08:29:29;16.22;64.47
67868;SHT31;54672;46.096;14.470;2023-04-25T08:31:54;15.98;64.63
67868;SHT31;54672;46.096;14.470;2023-04-25T08:34:20;16.61;64.58
67868;SHT31;54672;46.096;14.470;2023-04-25T08:36:46;16.87;61.59
67868;SHT31;54672;46.096;14.470;2023-04-25T08:39:11;16.17;65.48
67868;SHT31;54672;46.096;14.470;2023-04-25T08:41:37;16.25;63.38
67868;SHT31;54672;46.096;14.470;2023-04-25T08:44:03;15.45;67.48
67868;SHT31;54672;46.096;14.470;2023-04-25T08:46:30;15.15;67.27
67868;SHT31;54672;46.096;14.470;2023-04-25T08:49:00;14.50;69.09
67868;SHT31;54672;46.096;14.470;2023-04-25T08:51:30;14.20;71.61
67868;SHT31;54672;46.096;14.470;2023-04-25T08:54:09;14.71;69.74
67868;SHT31;54672;46.096;14.470;2023-04-25T08:56:39;15.56;68.64
67868;SHT31;54672;46.096;14.470;2023-04-25T08:59:06;15.38;64.48
67868;SHT31;54672;46.096;14.470;2023-04-25T09:01:34;13.68;70.91
67868;SHT31;54672;46.096;14.470;2023-04-25T09:04:01;14.56;67.64
67868;SHT31;54672;46.096;14.470;2023-04-25T09:06:28;13.41;71.39
67868;SHT31;54672;46.096;14.470;2023-04-25T09:08:53;14.24;70.53
67868;SHT31;54672;46.096;14.470;2023-04-25T09:11:19;15.06;66.40
67868;SHT31;54672;46.096;14.470;2023-04-25T09:13:45;15.52;65.69
67868;SHT31;54672;46.096;14.470;2023-04-25T09:16:10;13.81;70.74
67868;SHT31;54672;46.096;14.470;2023-04-25T09:18:36;13.85;72.32
67868;SHT31;54672;46.096;14.470;2023-04-25T09:21:08;13.95;70.24
67868;SHT31;54672;46.096;14.470;2023-04-25T09:24:00;13.18;71.82
67868;SHT31;54672;46.096;14.470;2023-04-25T09:26:25;13.06;73.59
67868;SHT31;54672;46.096;14.470;2023-04-25T09:29:05;13.47;72.72
67868;SHT31;54672;46.096;14.470;2023-04-25T09:31:33;13.76;72.56
67868;SHT31;54672;46.096;14.470;2023-04-25T09:33:59;13.69;71.25
67868;SHT31;54672;46.096;14.470;2023-04-25T09:36:26;13.93;69.35
67868;SHT31;54672;46.096;14.470;2023-04-25T09:38:52;14.27;70.63
67868;SHT31;54672;46.096;14.470;2023-04-25T09:41:23;13.44;70.91
67868;SHT31;54672;46.096;14.470;2023-04-25T09:43:50;14.33;68.49
67868;SHT31;54672;46.096;14.470;2023-04-25T09:46:16;14.37;67.42
67868;SHT31;54672;46.096;14.470;2023-04-25T09:48:49;14.94;66.52
67868;SHT31;54672;46.096;14.470;2023-04-25T09:51:15;15.12;65.66
67868;SHT31;54672;46.096;14.470;2023-04-25T09:53:43;15.32;64.88
67868;SHT31;54672;46.096;14.470;2023-04-25T09:56:10;15.29;66.16
67868;SHT31;54672;46.096;14.470;2023-04-25T09:58:37;14.56;65.98
67868;SHT31;54672;46.096;14.470;2023-04-25T10:01:05;13.61;68.67
67868;SHT31;54672;46.096;14.470;2023-04-25T10:03:33;13.74;69.12
67868;SHT31;54672;46.096;14.470;2023-04-25T10:06:01;14.30;67.64
67868;SHT31;54672;46.096;14.470;2023-04-25T10:08:37;14.74;66.18
67868;SHT31;54672;46.096;14.470;2023-04-25T10:11:04;13.69;70.28
67868;SHT31;54672;46.096;14.470;2023-04-25T10:13:31;14.06;69.92
67868;SHT31;54672;46.096;14.470;2023-04-25T10:16:03;14.15;67.62
67868;SHT31;54672;46.096;14.470;2023-04-25T10:18:30;14.51;66.34
67868;SHT31;54672;46.096;14.470;2023-04-25T10:20:58;14.13;69.11
67868;SHT31;54672;46.096;14.470;2023-04-25T10:23:25;13.90;68.75
67868;SHT31;54672;46.096;14.470;2023-04-25T10:25:52;14.56;67.70
67868;SHT31;54672;46.096;14.470;2023-04-25T10:28:19;13.62;70.47
67868;SHT31;54672;46.096;14.470;2023-04-25T10:31:00;13.18;72.25
67868;SHT31;54672;46.096;14.470;2023-04-25T10:33:39;13.65;70.93
67868;SHT31;54672;46.096;14.470;2023-04-25T10:36:14;13.17;72.14
67868;SHT31;54672;46.096;14.470;2023-04-25T10:38:41;13.74;70.41
67868;SHT31;54672;46.096;14.470;2023-04-25T10:41:08;13.79;71.49
67868;SHT31;54672;46.096;14.470;2023-04-25T10:43:36;13.62;70.53
67868;SHT31;54672;46.096;14.470;2023-04-25T10:46:22;13.48;70.52
67868;SHT31;54672;46.096;14.470;2023-04-25T10:51:19;13.58;70.91
67868;SHT31;54672;46.096;14.470;2023-04-25T10:53:46;14.02;70.24
67868;SHT31;54672;46.096;14.470;2023-04-25T10:56:32;13.54;70.18
67868;SHT31;54672;46.096;14.470;2023-04-25T11:01:38;13.50;72.67
67868;SHT31;54672;46.096;14.470;2023-04-25T11:04:04;14.19;70.23
67868;SHT31;54672;46.096;14.470;2023-04-25T11:09:37;14.38;68.25
67868;SHT31;54672;46.096;14.470;2023-04-25T11:12:03;14.32;67.89
67868;SHT31;54672;46.096;14.470;2023-04-25T11:14:29;14.84;66.90
67868;SHT31;54672;46.096;14.470;2023-04-25T11:16:55;15.46;65.61
67868;SHT31;54672;46.096;14.470;2023-04-25T11:19:22;15.94;64.10
67868;SHT31;54672;46.096;14.470;2023-04-25T11:21:47;15.86;62.92
67868;SHT31;54672;46.096;14.470;2023-04-25T11:24:13;15.73;63.13
67868;SHT31;54672;46.096;14.470;2023-04-25T11:26:38;15.77;64.10
67868;SHT31;54672;46.096;14.470;2023-04-25T11:29:06;15.64;62.95
67868;SHT31;54672;46.096;14.470;2023-04-25T11:31:31;14.36;65.94
67868;SHT31;54672;46.096;14.470;2023-04-25T11:33:57;14.22;67.03
67868;SHT31;54672;46.096;14.470;2023-04-25T11:36:26;15.11;65.84
67868;SHT31;54672;46.096;14.470;2023-04-25T11:38:52;15.62;64.02
67868;SHT31;54672;46.096;14.470;2023-04-25T11:41:21;16.03;64.26
67868;SHT31;54672;46.096;14.470;2023-04-25T11:43:48;15.11;63.51
67868;SHT31;54672;46.096;14.470;2023-04-25T11:46:14;14.61;66.49
67868;SHT31;54672;46.096;14.470;2023-04-25T11:48:40;14.27;67.61
67868;SHT31;54672;46.096;14.470;2023-04-25T11:51:06;14.47;65.86
67868;SHT31;54672;46.096;14.470;2023-04-25T11:53:31;14.80;66.37
67868;SHT31;54672;46.096;14.470;2023-04-25T11:55:57;14.81;65.54
67868;SHT31;54672;46.096;14.470;2023-04-25T11:58:22;15.05;64.15
67868;SHT31;54672;46.096;14.470;2023-04-25T12:00:48;14.89;65.86
67868;SHT31;54672;46.096;14.470;2023-04-25T12:03:13;14.59;65.97
67868;SHT31;54672;46.096;14.470;2023-04-25T12:05:39;14.54;67.58
67868;SHT31;54672;46.096;14.470;2023-04-25T12:08:17;15.06;64.99
67868;SHT31;54672;46.096;14.470;2023-04-25T12:10:45;14.70;65.10
67868;SHT31;54672;46.096;14.470;2023-04-25T12:13:24;15.40;65.22
67868;SHT31;54672;46.096;14.470;2023-04-25T12:15:51;14.60;64.93
67868;SHT31;54672;46.096;14.470;2023-04-25T12:18:28;14.75;66.51
67868;SHT31;54672;46.096;14.470;2023-04-25T12:20:54;14.91;63.92
67868;SHT31;54672;46.096;14.470;2023-04-25T12:23:29;14.54;64.17
67868;SHT31;54672;46.096;14.470;2023-04-25T12:25:55;15.09;63.00
67868;SHT31;54672;46.096;14.470;2023-04-25T12:28:22;14.71;65.60
67868;SHT31;54672;46.096;14.470;2023-04-25T12:33:25;14.53;63.41
67868;SHT31;54672;46.096;14.470;2023-04-25T12:35:52;14.67;64.17
67868;SHT31;54672;46.096;14.470;2023-04-25T12:38:40;14.92;61.36
67868;SHT31;54672;46.096;14.470;2023-04-25T12:41:06;14.77;62.27
67868;SHT31;54672;46.096;14.470;2023-04-25T12:43:32;14.38;63.35
67868;SHT31;54672;46.096;14.470;2023-04-25T12:45:58;14.30;63.15
67868;SHT31;54672;46.096;14.470;2023-04-25T12:48:24;14.16;65.01
67868;SHT31;54672;46.096;14.470;2023-04-25T12:50:50;14.09;65.40
67868;SHT31;54672;46.096;14.470;2023-04-25T12:53:20;13.99;65.38
67868;SHT31;54672;46.096;14.470;2023-04-25T12:55:46;14.09;64.15
67868;SHT31;54672;46.096;14.470;2023-04-25T12:58:15;14.17;65.14
67868;SHT31;54672;46.096;14.470;2023-04-25T13:00:41;14.02;66.01
67868;SHT31;54672;46.096;14.470;2023-04-25T13:03:08;14.24;65.21
67868;SHT31;54672;46.096;14.470;2023-04-25T13:05:34;14.01;64.61
67868;SHT31;54672;46.096;14.470;2023-04-25T13:07:59;13.83;65.47
67868;SHT31;54672;46.096;14.470;2023-04-25T13:10:25;13.78;65.01
67868;SHT31;54672;46.096;14.470;2023-04-25T13:12:51;13.82;64.74
67868;SHT31;54672;46.096;14.470;2023-04-25T13:15:16;13.95;64.59
67868;SHT31;54672;46.096;14.470;2023-04-25T13:17:42;14.30;64.24
67868;SHT31;54672;46.096;14.470;2023-04-25T13:20:08;13.90;63.70
67868;SHT31;54672;46.096;14.470;2023-04-25T13:22:38;14.10;64.80
67868;SHT31;54672;46.096;14.470;2023-04-25T13:25:05;14.06;65.97
67868;SHT31;54672;46.096;14.470;2023-04-25T13:27:31;14.17;64.49
67868;SHT31;54672;46.096;14.470;2023-04-25T13:29:58;14.50;63.04
67868;SHT31;54672;46.096;14.470;2023-04-25T13:32:23;14.83;62.36
67868;SHT31;54672;46.096;14.470;2023-04-25T13:34:49;14.80;63.09
67868;SHT31;54672;46.096;14.470;2023-04-25T13:37:14;14.53;60.48
67868;SHT31;54672;46.096;14.470;2023-04-25T13:39:40;14.70;59.45
67868;SHT31;54672;46.096;14.470;2023-04-25T13:42:06;14.50;58.81
67868;SHT31;54672;46.096;14.470;2023-04-25T13:44:31;14.05;60.21
67868;SHT31;54672;46.096;14.470;2023-04-25T13:46:56;14.40;61.01
67868;SHT31;54672;46.096;14.470;2023-04-25T13:49:22;14.71;60.40
67868;SHT31;54672;46.096;14.470;2023-04-25T13:51:48;15.22;58.59
67868;SHT31;54672;46.096;14.470;2023-04-25T13:54:13;15.52;57.41
67868;SHT31;54672;46.096;14.470;2023-04-25T13:56:39;15.38;54.20
67868;SHT31;54672;46.096;14.470;2023-04-25T13:59:07;15.80;54.28
67868;SHT31;54672;46.096;14.470;2023-04-25T14:01:32;15.89;54.21
67868;SHT31;54672;46.096;14.470;2023-04-25T14:04:00;14.92;57.53
67868;SHT31;54672;46.096;14.470;2023-04-25T14:06:26;14.85;56.48
67868;SHT31;54672;46.096;14.470;2023-04-25T14:08:53;14.84;56.25
67868;SHT31;54672;46.096;14.470;2023-04-25T14:11:19;15.53;56.40
67868;SHT31;54672;46.096;14.470;2023-04-25T14:13:45;15.84;56.43
67868;SHT31;54672;46.096;14.470;2023-04-25T14:16:10;14.84;57.89
67868;SHT31;54672;46.096;14.470;2023-04-25T14:18:36;14.51;58.78
67868;SHT31;54672;46.096;14.470;2023-04-25T14:21:01;14.77;58.86
67868;SHT31;54672;46.096;14.470;2023-04-25T14:23:26;14.64;58.86
67868;SHT31;54672;46.096;14.470;2023-04-25T14:25:52;14.98;59.72
67868;SHT31;54672;46.096;14.470;2023-04-25T14:28:17;14.68;59.91
67868;SHT31;54672;46.096;14.470;2023-04-25T14:30:43;14.78;59.57
67868;SHT31;54672;46.096;14.470;2023-04-25T14:33:08;14.47;60.53
67868;SHT31;54672;46.096;14.470;2023-04-25T14:35:35;14.73;60.34
67868;SHT31;54672;46.096;14.470;2023-04-25T14:38:00;14.50;60.80
67868;SHT31;54672;46.096;14.470;2023-04-25T14:40:26;14.98;61.16
67868;SHT31;54672;46.096;14.470;2023-04-25T14:42:51;15.52;59.68
67868;SHT31;54672;46.096;14.470;2023-04-25T14:45:17;15.79;57.94
67868;SHT31;54672;46.096;14.470;2023-04-25T14:47:43;15.40;60.05
67868;SHT31;54672;46.096;14.470;2023-04-25T14:50:09;15.90;58.02
67868;SHT31;54672;46.096;14.470;2023-04-25T14:52:35;15.24;58.50
67868;SHT31;54672;46.096;14.470;2023-04-25T14:55:00;14.71;58.82
67868;SHT31;54672;46.096;14.470;2023-04-25T14:57:31;15.33;58.22
67868;SHT31;54672;46.096;14.470;2023-04-25T14:59:56;14.83;56.92
67868;SHT31;54672;46.096;14.470;2023-04-25T15:02:24;15.12;57.17
67868;SHT31;54672;46.096;14.470;2023-04-25T15:04:49;15.28;58.05
67868;SHT31;54672;46.096;14.470;2023-04-25T15:07:14;15.49;53.93
67868;SHT31;54672;46.096;14.470;2023-04-25T15:09:40;15.64;54.92
67868;SHT31;54672;46.096;14.470;2023-04-25T15:12:05;15.28;56.51
67868;SHT31;54672;46.096;14.470;2023-04-25T15:14:31;15.62;56.12
67868;SHT31;54672;46.096;14.470;2023-04-25T15:16:56;15.56;55.50
67868;SHT31;54672;46.096;14.470;2023-04-25T15:19:22;15.14;55.85
67868;SHT31;54672;46.096;14.470;2023-04-25T15:21:47;14.91;54.90
67868;SHT31;54672;46.096;14.470;2023-04-25T15:24:13;15.04;54.72
67868;SHT31;54672;46.096;14.470;2023-04-25T15:26:40;15.22;55.96
67868;SHT31;54672;46.096;14.470;2023-04-25T15:29:05;15.35;56.28